createdAt,value
2018-08-12T00:00:19.522Z,2.60
2018-08-12T00:02:51.847Z,2.80
2018-08-12T00:05:24.479Z,2.40
2018-08-12T00:07:54.007Z,2.40
2018-08-12T00:10:25.024Z,2.60
2018-08-12T00:12:54.592Z,2.30
2018-08-12T00:15:24.377Z,2.17
2018-08-12T00:17:55.089Z,2.60
2018-08-12T00:20:26.940Z,2.20
2018-08-12T00:22:56.266Z,2.30
2018-08-12T00:25:25.770Z,2.57
2018-08-12T00:27:55.445Z,1.93
2018-08-12T00:30:25.196Z,2.80
2018-08-12T00:32:54.200Z,2.60
2018-08-12T00:35:23.256Z,2.30
2018-08-12T00:37:52.401Z,2.40
2018-08-12T00:40:21.298Z,2.30
2018-08-12T00:42:50.506Z,2.50
2018-08-12T00:45:20.800Z,2.53
2018-08-12T00:47:53.452Z,2.20
2018-08-12T00:50:22.954Z,2.70
2018-08-12T00:52:52.249Z,2.67
2018-08-12T00:55:21.847Z,2.13
2018-08-12T00:57:51.230Z,2.27
2018-08-12T01:00:22.142Z,2.20
2018-08-12T01:02:52.800Z,2.80
2018-08-12T01:05:24.184Z,2.47
2018-08-12T01:07:53.902Z,2.37
2018-08-12T01:10:23.261Z,2.90
2018-08-12T01:12:53.709Z,2.73
2018-08-12T01:15:26.416Z,2.27
2018-08-12T01:17:55.891Z,2.60
2018-08-12T01:20:26.822Z,2.80
2018-08-12T01:22:56.210Z,2.10
2018-08-12T01:25:26.104Z,2.67
2018-08-12T01:27:54.997Z,2.43
2018-08-12T01:30:24.323Z,2.53
2018-08-12T01:32:53.480Z,2.50
2018-08-12T01:35:22.413Z,2.30
2018-08-12T01:37:51.330Z,2.60
2018-08-12T01:40:20.685Z,2.30
2018-08-12T01:42:51.063Z,2.60
2018-08-12T01:45:21.129Z,2.60
2018-08-12T01:47:50.451Z,2.60
2018-08-12T01:50:20.342Z,2.60
2018-08-12T01:52:49.579Z,2.30
2018-08-12T01:55:22.746Z,2.60
2018-08-12T01:57:52.105Z,2.13
2018-08-12T02:00:22.471Z,2.53
2018-08-12T02:02:51.713Z,2.23
2018-08-12T02:05:21.080Z,2.17
2018-08-12T02:07:50.315Z,2.40
2018-08-12T02:10:19.740Z,2.70
2018-08-12T02:12:49.112Z,2.40
2018-08-12T02:15:18.403Z,2.60
2018-08-12T02:17:47.935Z,2.30
2018-08-12T02:20:16.978Z,2.53
2018-08-12T02:22:45.806Z,2.70
2018-08-12T02:25:14.549Z,3.00
2018-08-12T02:27:43.465Z,3.00
2018-08-12T02:30:13.291Z,2.70
2018-08-12T02:32:42.985Z,2.30
2018-08-12T02:35:12.688Z,2.50
2018-08-12T02:37:42.504Z,2.27
2018-08-12T02:40:11.906Z,2.10
2018-08-12T02:42:41.376Z,2.23
2018-08-12T02:45:13.016Z,2.93
2018-08-12T02:47:42.396Z,2.77
2018-08-12T02:50:11.575Z,2.97
2018-08-12T02:52:40.971Z,2.63
2018-08-12T02:55:12.103Z,2.37
2018-08-12T02:57:43.870Z,2.73
2018-08-12T03:00:13.967Z,2.70
2018-08-12T03:02:43.116Z,2.80
2018-08-12T03:05:13.082Z,2.33
2018-08-12T03:07:42.871Z,2.67
2018-08-12T03:10:11.911Z,2.60
2018-08-12T03:12:41.410Z,2.70
2018-08-12T03:15:11.130Z,2.47
2018-08-12T03:17:40.219Z,2.57
2018-08-12T03:20:10.546Z,2.63
2018-08-12T03:22:39.581Z,2.47
2018-08-12T03:25:09.418Z,2.50
2018-08-12T03:27:38.461Z,2.73
2018-08-12T03:30:08.431Z,2.70
2018-08-12T03:32:37.283Z,2.33
2018-08-12T03:35:06.773Z,2.70
2018-08-12T03:37:35.774Z,2.80
2018-08-12T03:40:06.044Z,2.50
2018-08-12T03:42:35.159Z,2.67
2018-08-12T03:45:04.365Z,2.80
2018-08-12T03:47:33.525Z,2.70
2018-08-12T03:50:02.473Z,2.70
2018-08-12T03:52:31.543Z,2.70
2018-08-12T03:55:01.173Z,3.07
2018-08-12T03:57:30.261Z,2.47
2018-08-12T04:00:00.054Z,2.73
2018-08-12T04:02:29.099Z,2.60
2018-08-12T04:04:58.522Z,2.73
2018-08-12T04:07:28.220Z,3.00
2018-08-12T04:09:57.149Z,2.93
2018-08-12T04:12:26.129Z,2.93
2018-08-12T04:14:54.848Z,2.50
2018-08-12T04:17:23.581Z,2.87
2018-08-12T04:19:52.433Z,3.27
2018-08-12T04:22:21.769Z,3.03
2018-08-12T04:24:51.073Z,2.97
2018-08-12T04:27:20.544Z,2.80
2018-08-12T04:29:49.298Z,2.73
2018-08-12T04:32:18.709Z,3.10
2018-08-12T04:34:48.005Z,2.77
2018-08-12T04:37:17.110Z,3.40
2018-08-12T04:39:46.384Z,3.00
2018-08-12T04:42:19.988Z,3.10
2018-08-12T04:44:48.884Z,2.73
2018-08-12T04:47:18.194Z,2.90
2018-08-12T04:49:47.645Z,2.67
2018-08-12T05:16:17.870Z,2.70
2018-08-12T05:18:47.042Z,3.10
2018-08-12T05:21:16.277Z,3.00
2018-08-12T05:23:45.620Z,2.90
2018-08-12T05:26:21.746Z,3.70
2018-08-12T05:28:51.126Z,3.20
2018-08-12T05:31:20.508Z,3.17
2018-08-12T05:33:50.001Z,2.83
2018-08-12T05:36:19.073Z,3.20
2018-08-12T05:38:48.909Z,2.70
2018-08-12T05:41:18.198Z,3.40
2018-08-12T05:43:49.664Z,2.87
2018-08-12T05:46:19.070Z,3.10
2018-08-12T05:48:49.000Z,3.00
2018-08-12T05:51:18.408Z,3.10
2018-08-12T05:53:52.692Z,3.57
2018-08-12T05:56:21.675Z,3.20
2018-08-12T05:58:50.878Z,3.00
2018-08-12T06:01:19.560Z,3.13
2018-08-12T06:03:48.511Z,3.50
2018-08-12T06:06:17.501Z,3.00
2018-08-12T06:08:46.607Z,3.80
2018-08-12T06:11:16.059Z,3.60
2018-08-12T06:13:49.295Z,4.10
2018-08-12T06:16:18.556Z,4.40
2018-08-12T06:18:47.914Z,4.10
2018-08-12T06:21:17.277Z,4.20
2018-08-12T06:23:46.518Z,3.30
2018-08-12T06:26:16.162Z,3.70
2018-08-12T06:28:46.705Z,3.60
2018-08-12T06:31:18.364Z,3.70
2018-08-12T06:33:48.438Z,3.50
2018-08-12T06:36:17.651Z,3.10
2018-08-12T06:38:52.348Z,3.43
2018-08-12T06:41:24.378Z,3.77
2018-08-12T06:43:54.070Z,2.77
2018-08-12T06:46:23.297Z,3.17
2018-08-12T06:48:52.371Z,3.17
2018-08-12T06:51:22.105Z,2.90
2018-08-12T06:53:51.094Z,3.30
2018-08-12T06:56:22.193Z,3.20
2018-08-12T06:58:51.066Z,3.07
2018-08-12T07:01:20.030Z,3.00
2018-08-12T07:03:48.883Z,2.97
2018-08-12T07:06:18.013Z,2.47
2018-08-12T07:08:46.644Z,2.80
2018-08-12T07:11:19.281Z,2.20
2018-08-12T07:13:48.268Z,2.60
2018-08-12T07:16:16.925Z,2.60
2018-08-12T07:18:45.708Z,2.00
2018-08-12T07:21:14.669Z,2.40
2018-08-12T07:23:44.022Z,2.30
2018-08-12T07:26:13.022Z,2.10
2018-08-12T07:28:42.069Z,2.33
2018-08-12T07:31:11.068Z,2.73
2018-08-12T07:33:39.716Z,2.33
2018-08-12T07:36:08.608Z,2.10
2018-08-12T07:38:37.922Z,2.20
2018-08-12T07:41:06.845Z,2.67
2018-08-12T07:43:35.983Z,1.97
2018-08-12T07:46:04.742Z,2.10
2018-08-12T07:48:33.531Z,2.10
2018-08-12T07:51:02.466Z,2.00
2018-08-12T07:53:31.103Z,1.93
2018-08-12T07:56:04.201Z,2.10
2018-08-12T07:58:33.138Z,2.00
2018-08-12T08:01:01.761Z,2.00
2018-08-12T08:03:30.388Z,1.93
2018-08-12T08:05:59.414Z,2.20
2018-08-12T08:08:28.132Z,2.20
2018-08-12T08:10:56.886Z,1.80
2018-08-12T08:13:25.680Z,1.97
2018-08-12T08:15:54.259Z,2.30
2018-08-12T08:18:22.867Z,2.20
2018-08-12T08:20:51.652Z,2.07
2018-08-12T08:23:20.415Z,2.17
2018-08-12T08:25:49.207Z,1.83
2018-08-12T08:28:18.086Z,2.07
2018-08-12T08:30:46.937Z,2.43
2018-08-12T08:33:15.548Z,1.93
2018-08-12T08:35:44.423Z,2.00
2018-08-12T08:38:13.270Z,1.90
2018-08-12T08:40:42.022Z,2.20
2018-08-12T08:43:10.690Z,2.20
2018-08-12T08:45:39.551Z,2.17
2018-08-12T08:48:07.994Z,2.17
2018-08-12T08:50:36.680Z,2.20
2018-08-12T08:53:05.666Z,1.87
2018-08-12T08:55:34.636Z,2.07
2018-08-12T08:58:03.128Z,2.20
2018-08-12T09:00:31.756Z,2.33
2018-08-12T09:03:00.538Z,2.50
2018-08-12T09:05:29.554Z,1.93
2018-08-12T09:07:58.516Z,2.00
2018-08-12T09:10:27.175Z,2.30
2018-08-12T09:12:56.185Z,1.80
2018-08-12T09:15:24.834Z,2.20
2018-08-12T09:17:53.871Z,1.93
2018-08-12T09:20:23.168Z,2.07
2018-08-12T09:22:52.844Z,2.10
2018-08-12T09:25:21.591Z,2.00
2018-08-12T09:27:50.521Z,2.00
2018-08-12T09:30:20.774Z,1.80
2018-08-12T09:32:49.705Z,2.10
2018-08-12T09:35:18.926Z,2.23
2018-08-12T09:37:47.466Z,1.80
2018-08-12T09:40:17.552Z,1.90
2018-08-12T09:42:47.503Z,1.97
2018-08-12T09:45:18.296Z,1.60
2018-08-12T09:47:47.642Z,1.73
2018-08-12T09:50:18.162Z,1.60
2018-08-12T09:52:47.670Z,1.73
2018-08-12T09:55:17.326Z,1.60
2018-08-12T09:57:46.912Z,2.30
2018-08-12T10:00:25.788Z,2.47
2018-08-12T10:02:55.926Z,2.03
2018-08-12T10:05:26.950Z,2.10
2018-08-12T10:07:55.707Z,2.20
2018-08-12T10:10:24.728Z,1.83
2018-08-12T10:12:54.058Z,2.00
2018-08-12T10:15:23.179Z,1.80
2018-08-12T10:17:55.147Z,2.50
2018-08-12T10:20:24.139Z,2.00
2018-08-12T10:22:52.999Z,1.93
2018-08-12T10:25:21.951Z,2.10
2018-08-12T10:27:50.725Z,1.90
2018-08-12T10:30:19.743Z,2.30
2018-08-12T10:32:48.868Z,1.93
2018-08-12T10:35:18.864Z,1.57
2018-08-12T10:37:47.713Z,1.67
2018-08-12T10:40:18.502Z,1.97
2018-08-12T10:42:47.925Z,1.77
2018-08-12T10:45:16.690Z,1.90
2018-08-12T10:47:45.917Z,1.53
2018-08-12T10:50:18.699Z,2.10
2018-08-12T10:52:48.154Z,1.70
2018-08-12T10:55:18.567Z,2.00
2018-08-12T10:57:47.605Z,2.10
2018-08-12T11:00:20.410Z,1.80
2018-08-12T11:02:49.271Z,1.70
2018-08-12T11:05:18.747Z,1.80
2018-08-12T11:07:55.211Z,2.00
2018-08-12T11:10:24.921Z,1.63
2018-08-12T11:12:54.905Z,1.90
2018-08-12T11:15:23.864Z,1.60
2018-08-12T11:17:54.850Z,1.87
2018-08-12T11:20:23.740Z,1.73
2018-08-12T11:22:52.469Z,1.90
2018-08-12T11:25:21.674Z,1.93
2018-08-12T11:27:50.632Z,1.60
2018-08-12T11:30:19.303Z,1.77
2018-08-12T11:32:48.083Z,1.57
2018-08-12T11:35:17.726Z,2.00
2018-08-12T11:37:46.819Z,1.77
2018-08-12T11:40:16.292Z,1.80
2018-08-12T11:42:45.156Z,1.83
2018-08-12T11:45:15.958Z,1.57
2018-08-12T11:47:46.783Z,2.30
2018-08-12T11:50:16.121Z,1.83
2018-08-12T11:52:45.362Z,1.63
2018-08-12T11:55:18.621Z,1.60
2018-08-12T11:57:47.734Z,1.90
2018-08-12T12:00:19.634Z,1.40
2018-08-12T12:02:49.861Z,1.97
2018-08-12T12:05:19.912Z,1.63
2018-08-12T12:07:49.228Z,1.60
2018-08-12T12:10:20.792Z,1.53
2018-08-12T12:12:50.495Z,1.87
2018-08-12T12:15:19.745Z,1.60
2018-08-12T12:17:49.228Z,1.60
2018-08-12T12:20:18.733Z,1.67
2018-08-12T12:22:49.791Z,1.60
2018-08-12T12:25:20.297Z,1.80
2018-08-12T12:27:49.040Z,1.60
2018-08-12T12:30:20.528Z,1.50
2018-08-12T12:32:50.373Z,1.97
2018-08-12T12:35:19.366Z,1.70
2018-08-12T12:37:48.203Z,1.83
2018-08-12T12:40:18.174Z,1.60
2018-08-12T12:42:47.543Z,1.90
2018-08-12T12:45:16.810Z,1.40
2018-08-12T12:47:45.878Z,1.63
2018-08-12T12:50:24.004Z,1.87
2018-08-12T12:52:53.417Z,1.93
2018-08-12T12:55:23.185Z,1.83
2018-08-12T12:57:52.178Z,1.97
2018-08-12T13:00:21.480Z,1.70
2018-08-12T13:02:50.613Z,1.80
2018-08-12T13:05:20.948Z,1.93
2018-08-12T13:07:50.364Z,1.70
2018-08-12T13:10:19.554Z,1.70
2018-08-12T13:12:48.203Z,1.70
2018-08-12T13:15:17.629Z,1.83
2018-08-12T13:17:46.218Z,1.63
2018-08-12T13:20:18.189Z,1.60
2018-08-12T13:22:47.944Z,2.00
2018-08-12T13:25:18.455Z,1.63
2018-08-12T13:27:47.500Z,1.80
2018-08-12T13:30:17.612Z,2.07
2018-08-12T13:32:47.273Z,1.70
2018-08-12T13:35:16.167Z,1.77
2018-08-12T13:37:45.076Z,1.80
2018-08-12T13:40:15.377Z,2.33
2018-08-12T13:42:44.775Z,1.90
2018-08-12T13:45:14.104Z,2.40
2018-08-12T13:47:43.979Z,1.83
2018-08-12T13:50:14.598Z,2.17
2018-08-12T13:52:43.624Z,2.00
2018-08-12T13:55:12.342Z,1.70
2018-08-12T13:57:41.080Z,1.80
2018-08-12T14:00:14.323Z,1.97
2018-08-12T14:02:43.341Z,2.07
2018-08-12T14:05:13.785Z,1.80
2018-08-12T14:07:42.607Z,1.90
2018-08-12T14:10:11.904Z,2.07
2018-08-12T14:12:41.072Z,2.00
2018-08-12T14:15:12.296Z,1.93
2018-08-12T14:17:41.909Z,1.93
2018-08-12T14:20:11.642Z,1.63
2018-08-12T14:22:40.650Z,2.00
2018-08-12T14:25:09.866Z,1.70
2018-08-12T14:27:39.295Z,1.80
2018-08-12T14:30:10.760Z,1.80
2018-08-12T14:32:39.698Z,1.90
2018-08-12T14:35:08.962Z,1.70
2018-08-12T14:37:38.525Z,1.83
2018-08-12T14:40:08.281Z,1.80
2018-08-12T14:42:36.968Z,1.80
2018-08-12T14:45:07.344Z,1.87
2018-08-12T14:47:35.975Z,2.23
2018-08-12T14:50:06.951Z,2.00
2018-08-12T14:52:35.737Z,2.20
2018-08-12T14:55:05.002Z,1.80
2018-08-12T14:57:33.895Z,1.90
2018-08-12T15:00:02.789Z,1.80
2018-08-12T15:02:31.720Z,1.90
2018-08-12T15:05:00.493Z,2.13
2018-08-12T15:07:29.309Z,1.90
2018-08-12T15:09:58.185Z,1.93
2018-08-12T15:12:27.195Z,2.00
2018-08-12T15:14:56.503Z,1.80
2018-08-12T15:17:25.450Z,2.20
2018-08-12T15:19:54.518Z,2.37
2018-08-12T15:22:23.661Z,2.07
2018-08-12T15:24:52.559Z,1.63
2018-08-12T15:27:21.561Z,1.90
2018-08-12T15:29:50.325Z,1.93
2018-08-12T15:32:19.163Z,1.87
2018-08-12T15:34:48.014Z,2.00
2018-08-12T15:37:17.104Z,1.80
2018-08-12T15:39:45.983Z,2.10
2018-08-12T15:42:14.861Z,2.37
2018-08-12T15:44:43.574Z,2.33
2018-08-12T15:47:12.313Z,2.00
2018-08-12T15:49:41.170Z,2.30
2018-08-12T15:52:09.896Z,2.17
2018-08-12T15:54:38.793Z,2.57
2018-08-12T15:57:07.436Z,2.23
2018-08-12T15:59:36.490Z,1.93
2018-08-12T16:02:05.405Z,2.20
2018-08-12T16:04:34.060Z,2.70
2018-08-12T16:07:06.785Z,2.33
2018-08-12T16:09:35.955Z,2.20
2018-08-12T16:12:05.690Z,2.60
2018-08-12T16:14:34.512Z,2.27
2018-08-12T16:17:03.469Z,2.40
2018-08-12T16:19:32.571Z,2.10
2018-08-12T16:22:01.348Z,2.30
2018-08-12T16:24:30.217Z,1.77
2018-08-12T16:26:58.892Z,1.43
2018-08-12T16:29:27.909Z,1.77
2018-08-12T16:31:56.553Z,1.60
2018-08-12T16:34:25.420Z,1.50
2018-08-12T16:36:54.370Z,1.60
2018-08-12T16:39:23.368Z,1.40
2018-08-12T16:41:52.767Z,1.30
2018-08-12T16:44:21.585Z,1.20
2018-08-12T16:46:50.966Z,1.40
2018-08-12T16:49:19.853Z,1.50
2018-08-12T16:51:49.061Z,1.57
2018-08-12T16:54:18.170Z,1.47
2018-08-12T16:56:47.195Z,1.40
2018-08-12T16:59:15.884Z,1.20
2018-08-12T17:01:45.084Z,1.47
2018-08-12T17:04:14.074Z,1.53
2018-08-12T17:06:43.113Z,1.83
2018-08-12T17:09:12.676Z,1.83
2018-08-12T17:11:42.240Z,2.40
2018-08-12T17:14:11.350Z,2.20
2018-08-12T17:16:40.329Z,2.10
2018-08-12T17:19:10.012Z,1.80
2018-08-12T17:21:39.026Z,2.07
2018-08-12T17:24:07.860Z,2.17
2018-08-12T17:26:36.899Z,1.87
2018-08-12T17:29:06.030Z,1.97
2018-08-12T17:31:34.825Z,2.20
2018-08-12T17:34:03.574Z,2.03
2018-08-12T17:36:32.498Z,2.10
2018-08-12T17:39:01.270Z,2.30
2018-08-12T17:41:30.208Z,2.50
2018-08-12T17:43:59.022Z,2.07
2018-08-12T17:46:27.923Z,2.23
2018-08-12T17:48:56.712Z,2.30
2018-08-12T17:51:25.598Z,2.40
2018-08-12T17:53:54.602Z,2.40
2018-08-12T17:56:24.163Z,2.00
2018-08-12T17:58:53.290Z,2.10
2018-08-12T18:01:22.471Z,2.03
2018-08-12T18:03:51.285Z,3.60
2018-08-12T18:06:20.224Z,1.83
2018-08-12T18:08:49.128Z,2.20
2018-08-12T18:11:17.795Z,2.20
2018-08-12T18:13:46.718Z,2.20
2018-08-12T18:16:15.399Z,2.13
2018-08-12T18:18:44.286Z,2.20
2018-08-12T18:21:13.116Z,2.20
2018-08-12T18:23:43.531Z,2.50
2018-08-12T18:26:11.976Z,2.40
2018-08-12T18:28:40.684Z,2.20
2018-08-12T18:31:09.288Z,2.57
2018-08-12T18:33:37.957Z,2.43
2018-08-12T18:36:07.190Z,2.43
2018-08-12T18:38:36.030Z,2.50
2018-08-12T18:41:04.743Z,2.20
2018-08-12T18:43:34.552Z,2.30
2018-08-12T18:46:03.503Z,2.47
2018-08-12T18:48:32.850Z,2.00
2018-08-12T18:51:01.546Z,2.13
2018-08-12T18:53:30.516Z,2.77
2018-08-12T18:55:59.532Z,2.57
2018-08-12T18:58:28.602Z,2.47
2018-08-12T19:00:57.611Z,2.70
2018-08-12T19:03:27.013Z,2.20
2018-08-12T19:05:56.190Z,2.70
2018-08-12T19:08:24.949Z,2.50
2018-08-12T19:10:54.486Z,2.60
2018-08-12T19:13:23.194Z,2.73
2018-08-12T19:15:52.818Z,2.60
2018-08-12T19:18:21.840Z,2.67
2018-08-12T19:20:50.806Z,2.50
2018-08-12T19:23:19.350Z,2.70
2018-08-12T19:25:50.109Z,2.60
2018-08-12T19:28:22.005Z,2.40
2018-08-12T19:30:50.815Z,2.57
2018-08-12T19:33:20.063Z,2.70
2018-08-12T19:35:49.274Z,2.93
2018-08-12T19:38:18.245Z,2.67
2018-08-12T19:40:47.206Z,2.87
2018-08-12T19:43:16.034Z,3.20
2018-08-12T19:45:44.988Z,3.67
2018-08-12T19:48:13.914Z,3.53
2018-08-12T19:50:42.571Z,4.10
2018-08-12T19:53:11.739Z,4.07
2018-08-12T19:55:48.703Z,3.83
2018-08-12T19:58:17.755Z,3.10
2018-08-12T20:00:46.681Z,3.90
2018-08-12T20:03:15.565Z,4.03
2018-08-12T20:05:44.224Z,3.87
2018-08-12T20:08:13.065Z,3.23
2018-08-12T20:10:41.888Z,2.97
2018-08-12T20:13:10.537Z,4.43
2018-08-12T20:15:39.276Z,4.27
2018-08-12T20:18:07.988Z,4.20
2018-08-12T20:20:36.717Z,3.30
2018-08-12T20:23:05.292Z,3.73
2018-08-12T20:25:34.038Z,3.63
2018-08-12T20:28:02.804Z,3.40
2018-08-12T20:30:31.460Z,3.40
2018-08-12T20:33:00.304Z,3.63
2018-08-12T20:35:29.244Z,3.23
2018-08-12T20:37:57.980Z,4.27
2018-08-12T20:40:26.622Z,3.57
2018-08-12T20:42:55.458Z,3.23
2018-08-12T20:45:24.348Z,3.50
2018-08-12T20:47:53.196Z,3.20
2018-08-12T20:50:22.041Z,3.37
2018-08-12T20:52:50.848Z,2.70
2018-08-12T20:55:19.932Z,3.17
2018-08-12T20:57:48.627Z,3.10
2018-08-12T21:00:17.718Z,2.80
2018-08-12T21:02:46.575Z,3.10
2018-08-12T21:05:15.537Z,3.47
2018-08-12T21:07:44.288Z,3.10
2018-08-12T21:10:13.319Z,3.03
2018-08-12T21:12:42.622Z,2.87
2018-08-12T21:15:11.456Z,3.20
2018-08-12T21:17:40.412Z,3.17
2018-08-12T21:20:09.126Z,3.20
2018-08-12T21:22:37.907Z,2.90
2018-08-12T21:25:06.466Z,3.13
2018-08-12T21:27:35.598Z,2.77
2018-08-12T21:30:04.697Z,3.10
2018-08-12T21:32:33.234Z,2.93
2018-08-12T21:35:02.176Z,3.30
2018-08-12T21:37:30.764Z,3.33
2018-08-12T21:39:59.379Z,3.10
2018-08-12T21:42:28.437Z,3.00
2018-08-12T21:44:57.093Z,3.80
2018-08-12T21:47:26.006Z,2.73
2018-08-12T21:49:54.698Z,2.97
2018-08-12T21:52:23.193Z,3.40
2018-08-12T21:54:51.764Z,2.97
2018-08-12T21:57:20.678Z,3.20
2018-08-12T21:59:49.277Z,3.50
2018-08-12T22:02:18.028Z,2.67
2018-08-12T22:04:46.826Z,3.23
2018-08-12T22:07:15.409Z,2.83
2018-08-12T22:09:43.977Z,3.40
2018-08-12T22:12:12.852Z,3.07
2018-08-12T22:14:41.806Z,2.97
2018-08-12T22:17:10.664Z,3.10
2018-08-12T22:19:39.432Z,2.80
2018-08-12T22:22:08.150Z,3.30
2018-08-12T22:24:36.917Z,3.37
2018-08-12T22:27:05.677Z,3.63
2018-08-12T22:29:34.748Z,3.37
2018-08-12T22:32:03.401Z,3.20
2018-08-12T22:34:32.146Z,3.03
2018-08-12T22:37:00.971Z,3.20
2018-08-12T22:39:29.729Z,3.23
2018-08-12T22:41:58.524Z,3.13
2018-08-12T22:44:27.180Z,3.23
2018-08-12T22:46:55.956Z,3.10
2018-08-12T22:49:24.596Z,3.27
2018-08-12T22:51:53.126Z,3.53
2018-08-12T22:54:21.716Z,3.07
2018-08-12T22:56:50.753Z,3.47
2018-08-12T22:59:19.510Z,2.80
2018-08-12T23:01:48.309Z,3.07
2018-08-12T23:04:17.150Z,3.23
2018-08-12T23:06:45.809Z,3.30
2018-08-12T23:09:14.606Z,3.37
2018-08-12T23:11:43.202Z,3.37
2018-08-12T23:14:11.733Z,3.00
2018-08-12T23:16:51.817Z,3.43
2018-08-12T23:19:20.473Z,3.30
2018-08-12T23:21:49.298Z,3.70
2018-08-12T23:24:18.093Z,3.50
2018-08-12T23:26:46.773Z,3.37
2018-08-12T23:29:15.657Z,3.30
2018-08-12T23:31:44.465Z,3.20
2018-08-12T23:34:13.132Z,3.30
2018-08-12T23:36:41.726Z,3.10
2018-08-12T23:39:11.597Z,3.50
2018-08-12T23:41:40.285Z,3.00
2018-08-12T23:44:09.520Z,2.67
2018-08-12T23:46:38.335Z,3.77
2018-08-12T23:49:07.305Z,3.07
2018-08-12T23:51:35.999Z,3.10
2018-08-12T23:54:05.004Z,2.97
2018-08-12T23:56:33.760Z,2.63
2018-08-12T23:59:02.455Z,2.80
